Measham, United Kingdom
Current Conditions -  °F | °C
As of 7:20 PM on Friday 21 Nov 2014 (Local Time) from EGNX Reporting Station
Moderate Rain Moderate Rain  
Wind Chill: 38°   Ceiling: 700
Heat Index: 45°   Visibility: 2.5mi
Dew Point: 45°   Wind: 15mph
Humidity: 100%   Direction: 110°ESE
Pressure: 29.91"   Gusts: NA
Location:  52.71°N, 1.51°W
Report Text: EGNX 211920Z 11013KT 4000 RA BKN007 07/07 Q1013
Loading
Personal Weather Stations






























Interactive Weather Map New forecast layout! Learn more

10-Day Weather Forecast

Advertisements
Track Severe Weather on mobile